Time;durP1;ratioP1;P1;durP2;ratioP2;P2;SDS_P1;SDS_P2;PMS_P1;PMS_P2;Temp;Humidity;BMP_temperature;BMP_pressure;BME280_temperature;BME280_humidity;BME280_pressure;Samples;Min_cycle;Max_cycle;Signal;HPM_P1;HPM_P2
2023/08/04 00:00:58;;;;;;;7.57;3.10;;;;;;;20.06;81.22;99793.53;5449318;32;34785;-78
2023/08/04 00:04:00;;;;;;;7.25;3.25;;;;;;;19.72;83.90;99795.66;5453782;32;34029;-67
2023/08/04 00:07:03;;;;;;;6.47;2.70;;;;;;;20.04;79.63;99810.66;5456290;32;34676;-78
2023/08/04 00:10:08;;;;;;;10.40;3.28;;;;;;;20.25;78.57;99804.28;5456973;32;36052;-67
2023/08/04 00:13:10;;;;;;;5.18;2.67;;;;;;;20.09;79.76;99792.41;5456693;32;35186;-77
2023/08/04 00:16:13;;;;;;;7.97;3.50;;;;;;;19.72;83.19;99779.66;5439206;32;34234;-67
2023/08/04 00:19:15;;;;;;;4.35;2.50;;;;;;;19.42;84.72;99772.44;5460085;32;35406;-75
2023/08/04 00:22:17;;;;;;;7.22;2.80;;;;;;;20.09;81.34;99771.91;5455091;32;34589;-66
2023/08/04 00:25:19;;;;;;;7.22;3.28;;;;;;;20.26;79.77;99783.78;5457233;32;35431;-75
2023/08/04 00:28:24;;;;;;;6.30;2.78;;;;;;;21.24;77.16;99855.03;5458450;32;34282;-78
2023/08/04 00:31:26;;;;;;;7.45;3.78;;;;;;;19.73;82.05;99935.97;5448091;32;34144;-76
2023/08/04 00:34:28;;;;;;;5.68;3.22;;;;;;;19.72;81.74;99919.13;5446553;32;34547;-66
2023/08/04 00:37:32;;;;;;;7.30;3.12;;;;;;;20.43;79.99;99899.72;5449473;32;34651;-66
2023/08/04 00:40:35;;;;;;;6.30;3.15;;;;;;;20.27;78.56;99940.22;5451289;32;34642;-67
2023/08/04 00:43:37;;;;;;;7.15;3.00;;;;;;;19.95;79.94;99892.31;5455787;32;34368;-66
2023/08/04 00:46:40;;;;;;;7.47;2.92;;;;;;;19.76;83.64;99882.38;5451655;32;34094;-76
2023/08/04 00:49:45;;;;;;;4.57;2.60;;;;;;;19.65;85.88;99877.97;5431424;32;35099;-67
2023/08/04 00:52:49;;;;;;;5.15;2.65;;;;;;;20.38;80.33;99881.44;5455506;32;34789;-76
2023/08/04 00:55:51;;;;;;;5.25;2.80;;;;;;;19.69;82.49;99862.53;5439815;32;35522;-76
2023/08/04 00:58:53;;;;;;;6.40;3.20;;;;;;;19.96;82.27;99875.31;5438438;32;35098;-67
2023/08/04 01:01:55;;;;;;;6.78;3.10;;;;;;;19.59;84.06;99864.31;5449142;32;34477;-67
2023/08/04 01:05:03;;;;;;;6.57;3.33;;;;;;;19.62;83.59;99853.38;5456550;32;35196;-77
2023/08/04 01:08:18;;;;;;;7.75;3.22;;;;;;;19.46;86.05;99843.16;5437038;32;37381;-78
2023/08/04 01:11:25;;;;;;;7.93;3.22;;;;;;;19.66;86.53;99814.84;5440220;32;34586;-75
2023/08/04 01:14:28;;;;;;;7.00;3.35;;;;;;;19.97;85.56;99835.22;5433988;32;34582;-75
2023/08/04 01:17:31;;;;;;;7.45;3.25;;;;;;;19.77;84.88;99857.38;5441488;32;35355;-67
2023/08/04 01:20:36;;;;;;;6.75;3.30;;;;;;;19.48;86.70;99863.34;5438582;32;36113;-68
2023/08/04 01:23:38;;;;;;;8.30;3.08;;;;;;;20.00;82.36;99864.25;5450471;32;35179;-67
2023/08/04 01:26:44;;;;;;;8.70;3.37;;;;;;;20.23;83.70;99854.28;5430190;32;35147;-66
2023/08/04 01:29:46;;;;;;;11.45;4.47;;;;;;;19.57;88.52;99866.22;5433641;32;34752;-66
2023/08/04 01:32:48;;;;;;;9.32;4.30;;;;;;;19.21;92.45;99871.00;5452201;32;34666;-77
2023/08/04 01:35:52;;;;;;;7.45;3.40;;;;;;;19.15;97.90;99847.53;5433723;32;34600;-74
2023/08/04 01:38:56;;;;;;;9.52;3.70;;;;;;;19.35;94.45;99861.84;5452938;32;35515;-76
2023/08/04 01:41:58;;;;;;;9.43;4.03;;;;;;;19.81;87.84;99879.31;5452407;32;34480;-66
2023/08/04 01:45:00;;;;;;;9.45;3.80;;;;;;;19.19;90.45;99892.44;5449406;32;34719;-67
2023/08/04 01:48:03;;;;;;;9.52;3.50;;;;;;;19.86;89.73;99906.44;5456529;32;34762;-77
2023/08/04 01:51:07;;;;;;;6.30;3.30;;;;;;;19.72;84.92;99926.28;5436892;32;35558;-67
2023/08/04 01:54:09;;;;;;;7.47;3.28;;;;;;;19.46;90.42;99905.28;5437406;32;35364;-77
2023/08/04 01:57:11;;;;;;;9.23;3.40;;;;;;;19.60;89.94;99885.50;5450895;32;35114;-66
2023/08/04 02:00:13;;;;;;;6.70;3.40;;;;;;;19.42;91.26;99890.53;5436820;32;34665;-76
2023/08/04 02:03:15;;;;;;;7.75;3.37;;;;;;;19.07;94.57;99880.16;5456722;32;34764;-65
2023/08/04 02:06:18;;;;;;;8.65;3.75;;;;;;;18.92;93.70;99868.91;5449464;32;34361;-67
2023/08/04 02:09:22;;;;;;;5.97;3.37;;;;;;;19.22;89.18;99878.03;5452063;32;35411;-66
2023/08/04 02:12:24;;;;;;;7.18;3.42;;;;;;;19.42;89.78;99876.34;5445649;32;34646;-76
2023/08/04 02:15:27;;;;;;;8.18;3.62;;;;;;;18.90;90.85;99878.84;5457605;32;34772;-66
2023/08/04 02:18:29;;;;;;;7.37;3.45;;;;;;;18.93;94.60;99849.31;5452456;32;33896;-67
2023/08/04 02:21:32;;;;;;;8.95;4.15;;;;;;;18.97;95.20;99833.94;5452288;32;34134;-66
2023/08/04 02:24:34;;;;;;;8.57;3.40;;;;;;;18.88;96.12;99835.53;5455661;32;35524;-76
2023/08/04 02:27:36;;;;;;;6.22;3.37;;;;;;;18.86;94.40;99844.59;5451572;32;34650;-77
2023/08/04 02:30:38;;;;;;;8.15;3.60;;;;;;;19.24;92.12;99848.59;5450734;32;34788;-76
2023/08/04 02:33:40;;;;;;;5.70;3.33;;;;;;;18.92;93.77;99852.09;5452786;32;34097;-66
2023/08/04 02:36:43;;;;;;;7.53;3.42;;;;;;;19.12;92.83;99855.78;5451132;32;34565;-78
2023/08/04 02:39:45;;;;;;;6.32;3.30;;;;;;;18.79;96.73;99846.09;5435948;32;34699;-67
2023/08/04 02:42:47;;;;;;;6.22;3.15;;;;;;;18.83;95.63;99856.37;5448543;32;34116;-76
2023/08/04 02:45:50;;;;;;;5.50;3.20;;;;;;;19.41;89.77;99856.84;5455699;32;34393;-77
2023/08/04 02:48:53;;;;;;;8.10;3.10;;;;;;;18.86;95.72;99857.91;5425073;32;34088;-77
2023/08/04 02:51:55;;;;;;;7.55;3.08;;;;;;;18.86;95.86;99855.25;5438648;32;34148;-75
2023/08/04 02:54:57;;;;;;;8.32;3.78;;;;;;;18.51;96.12;99850.13;5437502;32;34184;-77
2023/08/04 02:57:59;;;;;;;6.55;2.83;;;;;;;19.04;92.66;99836.94;5441224;32;35493;-67
2023/08/04 03:01:02;;;;;;;7.50;3.05;;;;;;;18.94;93.33;99850.16;5433944;32;34806;-78
2023/08/04 03:04:04;;;;;;;6.03;2.90;;;;;;;19.06;91.51;99851.78;5429905;32;34523;-75
2023/08/04 03:07:07;;;;;;;5.68;3.15;;;;;;;19.69;88.74;99908.69;5454830;32;34683;-65
2023/08/04 03:10:09;;;;;;;8.43;3.40;;;;;;;18.40;92.93;99936.09;5446047;32;34549;-77
2023/08/04 03:13:11;;;;;;;5.32;2.70;;;;;;;18.73;93.96;99956.56;5453942;32;34903;-76
2023/08/04 03:16:13;;;;;;;7.35;3.20;;;;;;;18.30;93.98;99938.66;5433749;32;34134;-66
2023/08/04 03:19:17;;;;;;;7.50;3.30;;;;;;;18.44;94.81;99934.91;5452474;32;34690;-75
2023/08/04 03:22:19;;;;;;;6.33;3.20;;;;;;;17.81;99.02;99918.50;5432541;32;35122;-76
2023/08/04 03:25:22;;;;;;;7.07;3.50;;;;;;;17.79;100.00;99915.13;5449900;32;34195;-68
2023/08/04 03:28:24;;;;;;;7.45;3.53;;;;;;;17.72;100.00;99897.97;5456700;32;35381;-78
2023/08/04 03:31:27;;;;;;;8.50;4.10;;;;;;;18.04;100.00;99906.12;5434124;32;34735;-67
2023/08/04 03:34:29;;;;;;;;;;;;;;;18.31;100.00;99886.28;5443686;32;35057;-67
2023/08/04 03:37:31;;;;;;;6.95;3.20;;;;;;;18.65;97.82;99897.75;5446356;32;34916;-67
2023/08/04 03:40:33;;;;;;;6.37;3.37;;;;;;;17.98;99.21;99895.09;5438806;32;35272;-66
2023/08/04 03:43:35;;;;;;;9.05;4.25;;;;;;;18.33;100.00;99889.66;5437574;32;35248;-75
2023/08/04 03:46:38;;;;;;;8.07;3.80;;;;;;;18.83;96.09;99890.97;5448655;32;34912;-77
2023/08/04 03:49:40;;;;;;;6.95;3.45;;;;;;;18.25;95.82;99895.59;5455594;32;35145;-66
2023/08/04 03:52:42;;;;;;;9.77;3.80;;;;;;;18.22;99.23;99895.81;5453017;32;34601;-78
2023/08/04 03:55:44;;;;;;;7.40;3.70;;;;;;;18.12;100.00;99893.06;5449989;32;34333;-78
2023/08/04 03:58:47;;;;;;;7.20;3.40;;;;;;;18.38;100.00;99891.00;5446178;32;34792;-78
2023/08/04 04:01:52;;;;;;;6.07;3.17;;;;;;;18.58;97.82;99909.84;5450019;32;33934;-76
2023/08/04 04:04:55;;;;;;;5.75;3.00;;;;;;;18.28;100.00;99903.31;5454183;32;34970;-67
2023/08/04 04:07:57;;;;;;;6.32;3.30;;;;;;;18.47;99.33;99932.00;5448796;32;34699;-66
2023/08/04 04:10:59;;;;;;;7.27;3.67;;;;;;;18.64;100.00;99943.97;5452202;32;34069;-78
2023/08/04 04:14:02;;;;;;;7.32;3.30;;;;;;;18.82;100.00;99933.69;5452708;32;35137;-78
2023/08/04 04:17:04;;;;;;;5.35;3.17;;;;;;;19.26;97.29;99950.56;5443749;32;34653;-77
2023/08/04 04:20:07;;;;;;;6.22;3.22;;;;;;;18.79;96.15;99956.06;5429038;32;34705;-66
2023/08/04 04:23:09;;;;;;;6.47;3.00;;;;;;;18.74;99.38;99921.00;5437493;32;35203;-78
2023/08/04 04:26:11;;;;;;;7.15;2.45;;;;;;;19.09;95.24;99938.59;5449167;32;34682;-67
2023/08/04 04:29:15;;;;;;;4.57;2.50;;;;;;;19.30;95.13;99968.81;5450210;32;34591;-78
2023/08/04 04:32:18;;;;;;;6.68;2.72;;;;;;;19.24;93.44;99977.31;5453327;32;34482;-77
2023/08/04 04:35:20;;;;;;;4.32;2.20;;;;;;;19.24;95.01;99965.81;5448402;32;34526;-67
2023/08/04 04:38:28;;;;;;;3.97;2.47;;;;;;;19.59;91.71;99952.28;5458258;32;34958;-77
2023/08/04 04:41:31;;;;;;;3.43;2.00;;;;;;;18.89;95.68;99926.91;5432446;32;34308;-77
2023/08/04 04:44:34;;;;;;;5.12;2.08;;;;;;;19.59;91.81;99897.16;5452051;32;34811;-67
2023/08/04 04:47:36;;;;;;;6.60;2.50;;;;;;;19.54;90.41;99895.81;5455439;32;35320;-74
2023/08/04 04:50:38;;;;;;;4.22;2.30;;;;;;;19.40;91.33;99891.63;5449862;32;33917;-66
2023/08/04 04:53:40;;;;;;;4.95;2.60;;;;;;;19.08;92.59;99896.97;5454410;32;35269;-66
2023/08/04 04:56:42;;;;;;;6.12;2.50;;;;;;;19.04;94.25;99893.69;5450494;32;33999;-66
2023/08/04 04:59:44;;;;;;;5.00;2.53;;;;;;;19.87;89.53;99894.78;5454807;32;34605;-66
2023/08/04 05:02:46;;;;;;;6.32;2.80;;;;;;;19.60;89.63;99888.16;5433748;32;35060;-66
2023/08/04 05:05:50;;;;;;;6.28;2.80;;;;;;;19.73;91.77;99882.66;5452371;32;34816;-77
2023/08/04 05:08:52;;;;;;;5.43;2.50;;;;;;;20.15;88.78;99878.09;5456607;32;35240;-68
2023/08/04 05:11:54;;;;;;;6.20;2.50;;;;;;;20.34;87.35;99874.66;5453057;32;34063;-78
2023/08/04 05:14:57;;;;;;;8.50;2.90;;;;;;;20.08;88.79;99881.44;5423665;32;34672;-67
2023/08/04 05:17:59;;;;;;;5.35;2.35;;;;;;;20.74;83.59;99873.84;5438251;32;35801;-78
2023/08/04 05:21:02;;;;;;;4.57;2.50;;;;;;;20.79;84.84;99879.59;5443427;32;37179;-78
2023/08/04 05:24:05;;;;;;;5.32;2.90;;;;;;;20.45;85.58;99879.94;5438439;32;35007;-67
2023/08/04 05:27:08;;;;;;;5.22;2.60;;;;;;;20.32;86.74;99879.28;5439356;32;34952;-67
2023/08/04 05:30:10;;;;;;;6.03;2.62;;;;;;;20.76;82.62;99886.06;5441123;32;34160;-67
2023/08/04 05:33:12;;;;;;;5.82;2.47;;;;;;;20.28;85.74;99885.88;5448136;32;34027;-67
2023/08/04 05:36:15;;;;;;;4.55;2.45;;;;;;;20.93;81.09;99879.22;5452967;32;34839;-78
2023/08/04 05:39:17;;;;;;;6.35;2.60;;;;;;;20.88;82.85;99880.63;5435079;32;35027;-68
2023/08/04 05:42:19;;;;;;;4.40;2.22;;;;;;;20.94;81.45;99880.06;5440584;32;34898;-77
2023/08/04 05:45:22;;;;;;;4.18;2.45;;;;;;;20.75;84.15;99876.38;5452152;32;34538;-67
2023/08/04 05:48:24;;;;;;;5.30;2.53;;;;;;;21.87;79.94;99866.09;5450387;32;35279;-67
2023/08/04 05:51:26;;;;;;;3.62;2.20;;;;;;;21.68;77.80;99858.13;5438492;32;34623;-67
2023/08/04 05:54:28;;;;;;;5.62;2.33;;;;;;;21.60;76.60;99859.69;5452246;32;34058;-67
2023/08/04 05:57:31;;;;;;;;;;;;;;;21.54;76.15;99868.28;5456582;32;35216;-67
2023/08/04 06:00:35;;;;;;;6.62;2.30;;;;;;;21.66;75.34;99860.09;5450910;32;34993;-77
2023/08/04 06:03:37;;;;;;;6.80;2.40;;;;;;;22.14;73.20;99871.53;5458365;32;34961;-66
2023/08/04 06:06:39;;;;;;;5.10;2.22;;;;;;;23.35;66.86;99865.03;5435443;32;34881;-76
2023/08/04 06:09:42;;;;;;;5.25;2.53;;;;;;;22.86;70.66;99872.63;5455870;32;34131;-77
2023/08/04 06:12:44;;;;;;;9.80;5.43;;;;;;;24.07;66.48;99857.69;5459338;32;34707;-76
2023/08/04 06:15:47;;;;;;;7.90;2.33;;;;;;;23.68;66.47;99851.91;5440934;32;35759;-77
2023/08/04 06:18:49;;;;;;;5.00;2.20;;;;;;;24.39;63.49;99840.09;5456844;32;34563;-83
2023/08/04 06:21:51;;;;;;;3.35;1.90;;;;;;;25.43;58.86;99845.84;5447970;32;34176;-81
2023/08/04 06:24:54;;;;;;;5.15;2.12;;;;;;;26.17;56.49;99849.28;5442734;32;35690;-67
2023/08/04 06:27:56;;;;;;;;;;;;;;;25.87;56.86;99858.97;5440115;32;34491;-83
2023/08/04 06:30:58;;;;;;;6.20;2.37;;;;;;;26.32;54.79;99852.94;5433637;32;34141;-67
2023/08/04 06:34:00;;;;;;;;;;;;;;;24.84;58.90;99853.16;5453074;32;34543;-83
2023/08/04 06:37:06;;;;;;;4.25;1.80;;;;;;;26.83;53.03;99855.25;5447069;32;35276;-83
2023/08/04 06:40:09;;;;;;;5.50;1.90;;;;;;;26.25;52.38;99849.25;5456055;32;34009;-67
2023/08/04 06:43:14;;;;;;;4.60;1.92;;;;;;;25.20;54.85;99861.81;5454675;32;35429;-81
2023/08/04 06:46:16;;;;;;;;;;;;;;;25.69;54.56;99867.19;5452378;32;34208;-83
2023/08/04 06:49:18;;;;;;;7.12;1.80;;;;;;;25.69;54.99;99867.19;5454905;32;35394;-67
2023/08/04 06:52:20;;;;;;;4.57;1.90;;;;;;;27.13;49.53;99861.66;5448203;32;34862;-67
2023/08/04 06:55:22;;;;;;;8.98;2.10;;;;;;;27.36;49.93;99864.34;5443925;32;34531;-83
2023/08/04 06:58:25;;;;;;;4.53;2.00;;;;;;;26.87;51.37;99867.38;5456431;32;33804;-67
2023/08/04 07:01:27;;;;;;;5.53;2.10;;;;;;;27.81;48.17;99863.47;5455797;32;35015;-67
2023/08/04 07:04:29;;;;;;;4.37;1.80;;;;;;;27.35;48.49;99876.16;5459743;32;34019;-66
2023/08/04 07:07:31;;;;;;;4.93;2.10;;;;;;;26.99;48.33;99874.88;5453441;32;35265;-68
2023/08/04 07:10:35;;;;;;;1.87;1.58;;;;;;;26.68;49.74;99884.81;5439266;32;34560;-67
2023/08/04 07:13:37;;;;;;;6.68;1.90;;;;;;;27.19;47.55;99877.97;5452751;32;34045;-82
2023/08/04 07:16:40;;;;;;;4.43;1.83;;;;;;;26.78;48.17;99882.72;5442979;32;32413;-82
2023/08/04 07:19:46;;;;;;;2.97;1.73;;;;;;;26.65;47.38;99887.84;5451982;32;34226;-83
2023/08/04 07:22:51;;;;;;;3.97;1.90;;;;;;;27.18;47.21;99884.38;5456734;32;35522;-82
2023/08/04 07:25:55;;;;;;;2.90;1.62;;;;;;;27.44;46.09;99891.28;5454731;32;35021;-82
2023/08/04 07:28:58;;;;;;;7.10;3.25;;;;;;;27.56;45.37;99886.28;5455346;32;34275;-82
2023/08/04 07:32:01;;;;;;;9.93;1.92;;;;;;;27.62;45.36;99883.69;5456155;32;34765;-82
2023/08/04 07:35:03;;;;;;;6.45;2.90;;;;;;;27.30;46.50;99884.78;5453111;32;34216;-67
2023/08/04 07:38:06;;;;;;;4.68;2.10;;;;;;;28.63;43.85;99879.63;5455256;32;34152;-81
2023/08/04 07:41:08;;;;;;;3.83;1.70;;;;;;;28.38;44.00;99878.25;5428375;32;34402;-67
2023/08/04 07:44:10;;;;;;;7.93;2.08;;;;;;;28.31;44.70;99868.19;5456267;32;34107;-69
2023/08/04 07:47:12;;;;;;;4.47;2.00;;;;;;;27.03;47.59;99882.59;5437471;32;35025;-83
2023/08/04 07:50:15;;;;;;;6.03;2.28;;;;;;;28.28;44.65;99879.34;5454286;32;35422;-67
2023/08/04 07:53:18;;;;;;;7.68;2.33;;;;;;;26.88;47.32;99907.63;5460873;32;33947;-67
2023/08/04 07:56:20;;;;;;;4.25;2.00;;;;;;;26.14;50.14;99911.56;5455014;32;35276;-82
2023/08/04 07:59:22;;;;;;;6.15;2.22;;;;;;;26.54;49.13;99912.50;5446655;32;34062;-67
2023/08/04 08:02:25;;;;;;;4.07;1.98;;;;;;;26.67;48.61;99905.53;5453608;32;35417;-67
2023/08/04 08:05:28;;;;;;;3.58;1.75;;;;;;;27.23;47.29;99916.19;5458508;32;35990;-67
2023/08/04 08:08:31;;;;;;;10.63;3.08;;;;;;;27.83;46.31;99901.94;5459885;32;35386;-82
2023/08/04 08:11:33;;;;;;;5.18;2.03;;;;;;;29.18;42.71;99893.59;5455836;32;34531;-81
2023/08/04 08:14:36;;;;;;;4.50;1.85;;;;;;;27.81;45.67;99893.16;5445743;32;36224;-66
2023/08/04 08:17:38;;;;;;;8.60;2.50;;;;;;;29.73;41.39;99901.00;5455222;32;35485;-67
2023/08/04 08:20:41;;;;;;;9.23;2.28;;;;;;;28.88;43.88;99882.84;5459504;32;34297;-68
2023/08/04 08:23:44;;;;;;;5.37;2.10;;;;;;;29.25;43.83;99884.50;5454473;32;35246;-83
2023/08/04 08:26:46;;;;;;;4.35;2.17;;;;;;;30.83;39.03;99875.84;5442490;32;33967;-83
2023/08/04 08:29:53;;;;;;;5.30;1.80;;;;;;;29.73;41.12;99884.75;5441119;32;34025;-67
2023/08/04 08:32:55;;;;;;;3.85;1.83;;;;;;;28.94;42.85;99884.81;5440909;32;35205;-81
2023/08/04 08:35:58;;;;;;;2.90;1.90;;;;;;;31.48;37.55;99884.34;5452021;32;34060;-68
2023/08/04 08:39:00;;;;;;;2.62;1.77;;;;;;;31.81;36.63;99882.50;5452791;32;33919;-68
2023/08/04 08:42:03;;;;;;;4.03;2.00;;;;;;;30.92;38.81;99871.09;5455591;32;34084;-79
2023/08/04 08:45:06;;;;;;;2.87;1.52;;;;;;;29.93;40.62;99869.47;5452083;32;34263;-69
2023/08/04 08:48:14;;;;;;;6.80;2.83;;;;;;;30.78;39.10;99870.19;5455711;32;34433;-67
2023/08/04 08:51:20;;;;;;;4.60;2.10;;;;;;;33.18;35.24;99858.84;5455162;32;37026;-68
2023/08/04 08:54:26;;;;;;;4.47;1.87;;;;;;;31.75;36.62;99869.75;5443475;32;33876;-80
2023/08/04 08:57:28;;;;;;;17.05;2.20;;;;;;;33.51;33.77;99858.59;5441195;32;33931;-67
2023/08/04 09:00:31;;;;;;;3.87;2.10;;;;;;;31.19;37.81;99858.41;5449544;32;34882;-80
2023/08/04 09:03:38;;;;;;;3.53;1.90;;;;;;;30.92;38.28;99871.91;5441720;32;34824;-68
2023/08/04 09:06:40;;;;;;;4.43;2.40;;;;;;;32.67;35.73;99864.31;5433166;32;34679;-68
2023/08/04 09:09:42;;;;;;;2.53;1.80;;;;;;;31.15;39.34;99874.25;5452752;32;33260;-81
2023/08/04 09:12:45;;;;;;;5.85;2.47;;;;;;;31.47;38.55;99872.66;5455430;32;34121;-80
2023/08/04 09:15:49;;;;;;;7.05;2.45;;;;;;;32.28;37.33;99883.25;5433961;32;33983;-79
2023/08/04 09:19:00;;;;;;;5.40;2.08;;;;;;;33.49;34.38;99889.84;5441897;32;34025;-80
2023/08/04 09:22:05;;;;;;;5.07;2.20;;;;;;;31.83;37.06;99893.16;5437232;32;34847;-67
2023/08/04 09:25:08;;;;;;;5.37;3.10;;;;;;;32.41;36.08;99881.59;5451372;32;34462;-80
2023/08/04 09:28:17;;;;;;;3.67;1.95;;;;;;;32.20;37.28;99877.19;5453650;32;34174;-67
2023/08/04 09:31:19;;;;;;;3.55;2.15;;;;;;;34.19;33.39;99876.84;5423045;32;34021;-69
2023/08/04 09:34:21;;;;;;;5.05;2.30;;;;;;;31.90;37.41;99872.25;5456687;32;34227;-68
2023/08/04 09:37:23;;;;;;;3.85;2.00;;;;;;;33.11;34.99;99869.78;5453103;32;35224;-76
2023/08/04 09:40:26;;;;;;;4.22;2.28;;;;;;;31.68;37.98;99868.88;5446805;32;34558;-68
2023/08/04 09:43:28;;;;;;;4.20;2.00;;;;;;;31.80;38.34;99872.66;5459416;32;34204;-80
2023/08/04 09:46:31;;;;;;;8.90;4.65;;;;;;;31.37;39.23;99868.69;5454759;32;34622;-78
2023/08/04 09:49:35;;;;;;;6.40;2.20;;;;;;;33.17;35.15;99859.88;5457512;32;35114;-78
2023/08/04 09:52:39;;;;;;;7.47;2.20;;;;;;;31.85;37.41;99863.91;5451858;32;34279;-68
2023/08/04 09:55:42;;;;;;;2.70;1.90;;;;;;;31.81;37.22;99858.03;5443249;32;34563;-76
2023/08/04 09:58:48;;;;;;;3.90;2.15;;;;;;;31.93;37.55;99852.81;5443407;32;36019;-67
2023/08/04 10:01:52;;;;;;;3.33;1.85;;;;;;;32.84;35.41;99839.09;5456243;32;34570;-79
2023/08/04 10:04:55;;;;;;;4.37;2.28;;;;;;;32.57;36.62;99835.69;5432411;32;34322;-67
2023/08/04 10:07:58;;;;;;;5.68;2.12;;;;;;;33.88;34.34;99832.28;5441346;32;34479;-67
2023/08/04 10:11:00;;;;;;;5.62;2.10;;;;;;;35.26;32.28;99823.41;5439955;32;34042;-67
2023/08/04 10:14:04;;;;;;;7.45;2.65;;;;;;;33.44;34.97;99824.31;5459360;32;35107;-68
2023/08/04 10:17:07;;;;;;;5.35;2.05;;;;;;;33.41;35.29;99833.75;5459239;32;36617;-67
2023/08/04 10:20:09;;;;;;;4.30;1.90;;;;;;;34.06;34.13;99830.63;5442758;32;34647;-79
2023/08/04 10:23:12;;;;;;;3.50;1.75;;;;;;;34.54;33.18;99836.19;5457775;32;34556;-67
2023/08/04 10:26:17;;;;;;;5.25;2.00;;;;;;;34.96;32.24;99841.72;5456648;32;35968;-78
2023/08/04 10:29:20;;;;;;;5.45;2.30;;;;;;;35.61;31.88;99843.66;5456991;32;34012;-78
2023/08/04 10:32:33;;;;;;;3.72;1.98;;;;;;;36.53;30.09;99828.28;5459717;32;34799;-68
2023/08/04 10:36:06;;;;;;;4.00;1.85;;;;;;;35.72;31.42;99835.47;5436781;32;34299;-79
2023/08/04 10:39:26;;;;;;;6.12;2.53;;;;;;;35.82;30.90;99837.62;5460766;32;34271;-80
2023/08/04 10:43:04;;;;;;;6.15;2.45;;;;;;;33.44;35.46;99838.75;5460001;32;34852;-79
2023/08/04 10:46:11;;;;;;;4.07;2.12;;;;;;;33.52;35.70;99832.19;5455155;32;34038;-68
2023/08/04 10:49:13;;;;;;;2.75;2.00;;;;;;;33.63;35.39;99840.47;5444401;32;34000;-79
2023/08/04 10:52:15;;;;;;;5.72;2.20;;;;;;;32.80;36.99;99832.44;5428748;32;34138;-68
2023/08/04 10:55:17;;;;;;;8.73;2.05;;;;;;;33.00;37.34;99831.50;5458652;32;34993;-79
2023/08/04 10:58:21;;;;;;;2.75;1.85;;;;;;;34.36;34.68;99828.81;5439472;32;34997;-68
2023/08/04 11:01:29;;;;;;;5.55;2.20;;;;;;;32.53;37.63;99831.75;5455307;32;35617;-68
2023/08/04 11:04:36;;;;;;;6.32;3.10;;;;;;;30.43;42.38;99847.69;5455276;32;34811;-67
2023/08/04 11:07:47;;;;;;;4.15;2.10;;;;;;;31.44;40.63;99839.66;5441735;32;34110;-67
2023/08/04 11:10:56;;;;;;;3.15;2.15;;;;;;;32.14;39.02;99843.56;5455544;32;35848;-68
2023/08/04 11:14:03;;;;;;;5.22;2.20;;;;;;;31.05;41.55;99846.69;5457152;32;34550;-79
2023/08/04 11:17:11;;;;;;;3.85;2.35;;;;;;;33.14;36.82;99835.81;5420162;32;35215;-80
2023/08/04 11:20:15;;;;;;;4.40;2.53;;;;;;;31.89;39.36;99834.44;5442861;32;32423;-69
2023/08/04 11:23:30;;;;;;;4.85;2.33;;;;;;;32.29;38.78;99829.72;5436812;32;35665;-79
2023/08/04 11:26:32;;;;;;;7.85;2.20;;;;;;;32.28;39.13;99826.16;5436742;32;35189;-68
2023/08/04 11:29:35;;;;;;;4.32;2.17;;;;;;;32.29;38.95;99829.72;5459034;32;34686;-67
2023/08/04 11:32:37;;;;;;;3.95;2.08;;;;;;;32.27;39.03;99834.53;5452816;32;34851;-68
2023/08/04 11:35:40;;;;;;;4.62;2.30;;;;;;;34.71;34.93;99828.19;5451875;32;34437;-78
2023/08/04 11:38:42;;;;;;;9.27;2.40;;;;;;;33.90;35.78;99824.69;5423429;32;35077;-79
2023/08/04 11:41:44;;;;;;;3.40;2.10;;;;;;;34.04;35.73;99819.13;5455403;32;34829;-79
2023/08/04 11:44:47;;;;;;;5.40;2.05;;;;;;;34.20;35.42;99819.38;5460285;32;34092;-67
2023/08/04 11:47:49;;;;;;;5.00;2.17;;;;;;;34.92;33.59;99822.25;5446212;32;34787;-67
2023/08/04 11:50:54;;;;;;;6.05;2.33;;;;;;;32.86;38.35;99830.75;5439657;32;35337;-76
2023/08/04 11:53:57;;;;;;;7.18;2.70;;;;;;;33.81;36.04;99823.31;5459589;32;34156;-69
2023/08/04 11:57:02;;;;;;;4.82;2.28;;;;;;;34.92;34.19;99829.62;5460612;32;36204;-70
2023/08/04 12:00:05;;;;;;;6.00;2.60;;;;;;;34.67;34.97;99833.28;5461782;32;34232;-68
2023/08/04 12:03:07;;;;;;;4.75;2.40;;;;;;;35.05;33.98;99818.50;5460365;32;34725;-68
2023/08/04 12:06:18;;;;;;;4.03;2.53;;;;;;;36.87;30.47;99822.91;5454908;32;34229;-80
2023/08/04 12:09:20;;;;;;;5.45;2.00;;;;;;;36.07;32.48;99813.62;5446943;32;35953;-68
2023/08/04 12:12:38;;;;;;;3.78;2.20;;;;;;;39.05;27.43;99802.44;5444310;32;34814;-67
2023/08/04 12:15:53;;;;;;;3.25;2.10;;;;;;;36.89;30.96;99815.28;5444664;32;34636;-68
2023/08/04 12:19:05;;;;;;;4.57;2.25;;;;;;;39.44;27.17;99807.72;5460817;32;34063;-69
2023/08/04 12:22:08;;;;;;;3.80;2.40;;;;;;;38.10;28.81;99803.78;5443143;32;34023;-67
2023/08/04 12:25:11;;;;;;;6.68;2.72;;;;;;;39.73;26.84;99806.28;5458304;32;34107;-67
2023/08/04 12:28:14;;;;;;;5.12;2.70;;;;;;;36.99;31.22;99798.22;5456318;32;35138;-80
2023/08/04 12:31:16;;;;;;;3.53;2.00;;;;;;;38.19;29.28;99805.84;5439708;32;35695;-80
2023/08/04 12:34:18;;;;;;;4.97;2.58;;;;;;;38.60;28.79;99798.13;5458949;32;34638;-80
2023/08/04 12:37:25;;;;;;;9.32;4.90;;;;;;;35.61;33.03;99803.50;5424837;32;33643;-80
2023/08/04 12:40:28;;;;;;;5.68;3.28;;;;;;;33.10;37.50;99813.66;5446422;32;34895;-79
2023/08/04 12:43:30;;;;;;;5.00;3.28;;;;;;;33.54;37.18;99808.28;5458015;32;35172;-67
2023/08/04 12:46:32;;;;;;;12.75;3.62;;;;;;;33.26;37.88;99806.00;5456945;32;34856;-67
2023/08/04 12:49:34;;;;;;;5.78;3.08;;;;;;;32.07;40.42;99812.84;5459874;32;34198;-68
2023/08/04 12:52:37;;;;;;;4.05;2.60;;;;;;;31.64;41.14;99812.50;5457372;32;34174;-68
2023/08/04 12:55:40;;;;;;;4.20;2.70;;;;;;;31.53;42.24;99805.81;5454191;32;34989;-80
2023/08/04 12:58:43;;;;;;;4.87;2.95;;;;;;;32.36;40.42;99795.22;5413809;32;34301;-67
2023/08/04 13:01:45;;;;;;;7.12;3.17;;;;;;;31.93;41.42;99793.00;5433779;32;34744;-78
2023/08/04 13:04:48;;;;;;;4.47;2.60;;;;;;;30.68;44.64;99805.47;5458552;32;31369;-68
2023/08/04 13:07:51;;;;;;;6.65;3.35;;;;;;;30.91;44.06;99794.25;5456782;32;34394;-80
2023/08/04 13:10:54;;;;;;;4.97;2.70;;;;;;;32.09;42.18;99778.13;5457179;32;34806;-80
2023/08/04 13:13:56;;;;;;;6.62;2.90;;;;;;;30.41;45.08;99790.97;5455108;32;34528;-68
2023/08/04 13:16:58;;;;;;;5.60;3.37;;;;;;;31.06;43.83;99783.22;5453906;32;35475;-69
2023/08/04 13:20:00;;;;;;;5.62;2.50;;;;;;;31.00;44.39;99789.47;5450257;32;35318;-68
2023/08/04 13:23:03;;;;;;;9.50;3.25;;;;;;;32.19;41.13;99778.50;5454256;32;34710;-69
2023/08/04 13:26:07;;;;;;;5.97;3.28;;;;;;;31.42;43.22;99776.56;5449715;32;34798;-77
2023/08/04 13:29:10;;;;;;;6.75;3.95;;;;;;;31.29;44.25;99790.97;5453464;32;34219;-68
2023/08/04 13:32:12;;;;;;;5.28;2.87;;;;;;;32.08;42.01;99792.78;5443146;32;34684;-79
2023/08/04 13:35:15;;;;;;;4.97;2.87;;;;;;;32.38;40.99;99787.66;5452471;32;35079;-76
2023/08/04 13:38:17;;;;;;;7.40;3.85;;;;;;;32.72;39.54;99786.44;5457746;32;35268;-67
2023/08/04 13:41:19;;;;;;;9.10;3.30;;;;;;;32.55;40.19;99782.56;5439117;32;35296;-68
2023/08/04 13:44:22;;;;;;;7.85;3.30;;;;;;;31.75;42.57;99787.37;5460988;32;36050;-68
2023/08/04 13:47:25;;;;;;;5.55;3.37;;;;;;;31.65;43.08;99781.56;5454161;32;34146;-81
2023/08/04 13:50:27;;;;;;;6.97;3.97;;;;;;;30.64;45.42;99784.38;5436696;32;35024;-68
2023/08/04 13:53:30;;;;;;;5.43;3.33;;;;;;;30.61;45.02;99788.34;5458914;32;35178;-78
2023/08/04 13:56:33;;;;;;;7.53;3.60;;;;;;;30.96;44.42;99789.03;5434446;32;35298;-67
2023/08/04 13:59:35;;;;;;;7.47;3.47;;;;;;;30.60;45.48;99783.12;5455378;32;35127;-67
2023/08/04 14:02:41;;;;;;;5.12;3.20;;;;;;;30.44;45.84;99779.72;5451430;32;34715;-68
2023/08/04 14:05:44;;;;;;;7.37;3.58;;;;;;;30.93;44.58;99778.63;5455051;32;34330;-68
2023/08/04 14:08:46;;;;;;;8.48;3.28;;;;;;;30.84;44.69;99779.00;5450447;32;34690;-68
2023/08/04 14:11:48;;;;;;;6.12;3.58;;;;;;;30.36;45.59;99776.34;5435687;32;34241;-68
2023/08/04 14:14:52;;;;;;;4.32;2.90;;;;;;;30.89;44.31;99769.22;5450104;32;140241;-68
2023/08/04 14:17:55;;;;;;;6.97;3.30;;;;;;;31.33;43.27;99762.38;5433031;32;35228;-67
2023/08/04 14:21:01;;;;;;;5.50;3.28;;;;;;;30.90;44.86;99761.91;5453392;32;34391;-67
2023/08/04 14:24:04;;;;;;;6.25;3.30;;;;;;;31.10;43.83;99761.91;5425107;32;35014;-79